sensor_id;sensor_type;location;lat;lon;timestamp;P1;durP1;ratioP1;P2;durP2;ratioP2
3491;SDS011;1760;52.480;13.422;2023-04-24T00:01:02;4.30;;;3.90;;
3491;SDS011;1760;52.480;13.422;2023-04-24T00:03:33;4.10;;;3.70;;
3491;SDS011;1760;52.480;13.422;2023-04-24T00:06:00;5.13;;;4.33;;
3491;SDS011;1760;52.480;13.422;2023-04-24T00:08:27;5.30;;;4.57;;
3491;SDS011;1760;52.480;13.422;2023-04-24T00:10:54;4.90;;;4.30;;
3491;SDS011;1760;52.480;13.422;2023-04-24T00:13:21;5.67;;;3.70;;
3491;SDS011;1760;52.480;13.422;2023-04-24T00:15:48;8.33;;;4.73;;
3491;SDS011;1760;52.480;13.422;2023-04-24T00:18:15;6.53;;;4.47;;
3491;SDS011;1760;52.480;13.422;2023-04-24T00:20:43;5.33;;;3.90;;
3491;SDS011;1760;52.480;13.422;2023-04-24T00:23:11;4.50;;;3.40;;
3491;SDS011;1760;52.480;13.422;2023-04-24T00:25:38;4.37;;;3.80;;
3491;SDS011;1760;52.480;13.422;2023-04-24T00:28:05;4.53;;;3.77;;
3491;SDS011;1760;52.480;13.422;2023-04-24T00:30:32;4.53;;;3.97;;
3491;SDS011;1760;52.480;13.422;2023-04-24T00:32:59;5.50;;;4.10;;
3491;SDS011;1760;52.480;13.422;2023-04-24T00:35:25;5.50;;;4.03;;
3491;SDS011;1760;52.480;13.422;2023-04-24T00:37:54;6.30;;;4.80;;
3491;SDS011;1760;52.480;13.422;2023-04-24T00:40:20;4.63;;;3.93;;
3491;SDS011;1760;52.480;13.422;2023-04-24T00:42:47;6.50;;;4.80;;
3491;SDS011;1760;52.480;13.422;2023-04-24T00:45:15;6.30;;;4.30;;
3491;SDS011;1760;52.480;13.422;2023-04-24T00:47:42;5.57;;;4.10;;
3491;SDS011;1760;52.480;13.422;2023-04-24T00:50:09;5.07;;;3.73;;
3491;SDS011;1760;52.480;13.422;2023-04-24T00:52:36;5.80;;;4.47;;
3491;SDS011;1760;52.480;13.422;2023-04-24T00:55:07;5.30;;;4.00;;
3491;SDS011;1760;52.480;13.422;2023-04-24T00:57:35;5.13;;;4.53;;
3491;SDS011;1760;52.480;13.422;2023-04-24T01:00:02;6.70;;;4.00;;
3491;SDS011;1760;52.480;13.422;2023-04-24T01:02:32;5.17;;;4.43;;
3491;SDS011;1760;52.480;13.422;2023-04-24T01:05:00;5.97;;;4.63;;
3491;SDS011;1760;52.480;13.422;2023-04-24T01:07:27;6.80;;;3.83;;
3491;SDS011;1760;52.480;13.422;2023-04-24T01:09:54;4.20;;;3.80;;
3491;SDS011;1760;52.480;13.422;2023-04-24T01:12:22;5.07;;;4.57;;
3491;SDS011;1760;52.480;13.422;2023-04-24T01:14:49;4.10;;;3.63;;
3491;SDS011;1760;52.480;13.422;2023-04-24T01:17:16;6.10;;;4.67;;
3491;SDS011;1760;52.480;13.422;2023-04-24T01:19:43;4.43;;;3.73;;
3491;SDS011;1760;52.480;13.422;2023-04-24T01:22:15;5.00;;;4.10;;
3491;SDS011;1760;52.480;13.422;2023-04-24T01:24:42;5.50;;;4.93;;
3491;SDS011;1760;52.480;13.422;2023-04-24T01:27:09;5.03;;;4.17;;
3491;SDS011;1760;52.480;13.422;2023-04-24T01:29:37;5.13;;;3.93;;
3491;SDS011;1760;52.480;13.422;2023-04-24T01:32:04;5.07;;;4.23;;
3491;SDS011;1760;52.480;13.422;2023-04-24T01:34:31;4.40;;;3.60;;
3491;SDS011;1760;52.480;13.422;2023-04-24T01:36:58;5.03;;;4.00;;
3491;SDS011;1760;52.480;13.422;2023-04-24T01:39:27;5.30;;;4.03;;
3491;SDS011;1760;52.480;13.422;2023-04-24T01:41:54;3.67;;;3.10;;
3491;SDS011;1760;52.480;13.422;2023-04-24T01:44:22;5.93;;;4.70;;
3491;SDS011;1760;52.480;13.422;2023-04-24T01:46:51;5.30;;;4.20;;
3491;SDS011;1760;52.480;13.422;2023-04-24T01:49:30;4.77;;;4.27;;
3491;SDS011;1760;52.480;13.422;2023-04-24T01:52:06;6.63;;;4.63;;
3491;SDS011;1760;52.480;13.422;2023-04-24T01:54:35;6.53;;;4.80;;
3491;SDS011;1760;52.480;13.422;2023-04-24T01:57:02;6.10;;;5.17;;
3491;SDS011;1760;52.480;13.422;2023-04-24T01:59:28;10.10;;;4.70;;
3491;SDS011;1760;52.480;13.422;2023-04-24T02:01:57;5.90;;;4.80;;
3491;SDS011;1760;52.480;13.422;2023-04-24T02:04:24;4.80;;;4.30;;
3491;SDS011;1760;52.480;13.422;2023-04-24T02:06:53;7.43;;;4.70;;
3491;SDS011;1760;52.480;13.422;2023-04-24T02:09:20;4.53;;;4.10;;
3491;SDS011;1760;52.480;13.422;2023-04-24T02:11:48;7.53;;;4.60;;
3491;SDS011;1760;52.480;13.422;2023-04-24T02:14:15;6.00;;;4.30;;
3491;SDS011;1760;52.480;13.422;2023-04-24T02:16:42;6.50;;;5.00;;
3491;SDS011;1760;52.480;13.422;2023-04-24T02:19:14;6.57;;;4.60;;
3491;SDS011;1760;52.480;13.422;2023-04-24T02:21:48;6.33;;;4.80;;
3491;SDS011;1760;52.480;13.422;2023-04-24T02:24:14;5.20;;;4.23;;
3491;SDS011;1760;52.480;13.422;2023-04-24T02:26:42;4.80;;;4.27;;
3491;SDS011;1760;52.480;13.422;2023-04-24T02:29:10;5.83;;;4.90;;
3491;SDS011;1760;52.480;13.422;2023-04-24T02:31:36;5.17;;;4.30;;
3491;SDS011;1760;52.480;13.422;2023-04-24T02:34:03;5.00;;;4.50;;
3491;SDS011;1760;52.480;13.422;2023-04-24T02:36:30;5.23;;;4.73;;
3491;SDS011;1760;52.480;13.422;2023-04-24T02:38:57;4.80;;;4.27;;
3491;SDS011;1760;52.480;13.422;2023-04-24T02:41:24;6.70;;;5.40;;
3491;SDS011;1760;52.480;13.422;2023-04-24T02:43:56;8.07;;;4.90;;
3491;SDS011;1760;52.480;13.422;2023-04-24T02:46:24;4.93;;;4.20;;
3491;SDS011;1760;52.480;13.422;2023-04-24T02:48:54;9.10;;;4.53;;
3491;SDS011;1760;52.480;13.422;2023-04-24T02:51:31;10.30;;;4.90;;
3491;SDS011;1760;52.480;13.422;2023-04-24T02:53:58;4.30;;;3.67;;
3491;SDS011;1760;52.480;13.422;2023-04-24T02:56:25;6.13;;;4.20;;
3491;SDS011;1760;52.480;13.422;2023-04-24T02:58:52;5.00;;;4.17;;
3491;SDS011;1760;52.480;13.422;2023-04-24T03:01:18;5.77;;;4.47;;
3491;SDS011;1760;52.480;13.422;2023-04-24T03:03:48;6.50;;;4.63;;
3491;SDS011;1760;52.480;13.422;2023-04-24T03:06:15;5.20;;;4.40;;
3491;SDS011;1760;52.480;13.422;2023-04-24T03:08:42;6.70;;;4.43;;
3491;SDS011;1760;52.480;13.422;2023-04-24T03:11:09;5.03;;;4.20;;
3491;SDS011;1760;52.480;13.422;2023-04-24T03:13:36;6.17;;;5.17;;
3491;SDS011;1760;52.480;13.422;2023-04-24T03:16:02;7.50;;;5.00;;
3491;SDS011;1760;52.480;13.422;2023-04-24T03:18:30;7.00;;;4.83;;
3491;SDS011;1760;52.480;13.422;2023-04-24T03:20:58;4.80;;;4.30;;
3491;SDS011;1760;52.480;13.422;2023-04-24T03:23:25;7.43;;;5.40;;
3491;SDS011;1760;52.480;13.422;2023-04-24T03:25:52;4.63;;;4.07;;
3491;SDS011;1760;52.480;13.422;2023-04-24T03:28:19;11.33;;;4.53;;
3491;SDS011;1760;52.480;13.422;2023-04-24T03:30:46;16.17;;;5.40;;
3491;SDS011;1760;52.480;13.422;2023-04-24T03:33:13;8.53;;;4.80;;
3491;SDS011;1760;52.480;13.422;2023-04-24T03:35:40;8.77;;;4.40;;
3491;SDS011;1760;52.480;13.422;2023-04-24T03:38:08;6.60;;;4.50;;
3491;SDS011;1760;52.480;13.422;2023-04-24T03:40:35;4.63;;;3.87;;
3491;SDS011;1760;52.480;13.422;2023-04-24T03:43:02;6.60;;;4.53;;
3491;SDS011;1760;52.480;13.422;2023-04-24T03:45:29;4.93;;;4.20;;
3491;SDS011;1760;52.480;13.422;2023-04-24T03:47:56;5.93;;;4.30;;
3491;SDS011;1760;52.480;13.422;2023-04-24T03:50:23;7.90;;;5.63;;
3491;SDS011;1760;52.480;13.422;2023-04-24T03:52:51;5.23;;;4.43;;
3491;SDS011;1760;52.480;13.422;2023-04-24T03:55:19;4.63;;;4.23;;
3491;SDS011;1760;52.480;13.422;2023-04-24T03:57:47;6.80;;;4.53;;
3491;SDS011;1760;52.480;13.422;2023-04-24T04:00:14;5.33;;;4.57;;
3491;SDS011;1760;52.480;13.422;2023-04-24T04:02:41;4.60;;;4.20;;
3491;SDS011;1760;52.480;13.422;2023-04-24T04:05:08;5.50;;;4.63;;
3491;SDS011;1760;52.480;13.422;2023-04-24T04:07:35;7.13;;;5.27;;
3491;SDS011;1760;52.480;13.422;2023-04-24T04:10:02;5.03;;;4.53;;
3491;SDS011;1760;52.480;13.422;2023-04-24T04:12:30;5.10;;;4.57;;
3491;SDS011;1760;52.480;13.422;2023-04-24T04:14:57;7.13;;;5.17;;
3491;SDS011;1760;52.480;13.422;2023-04-24T04:17:24;6.90;;;4.33;;
3491;SDS011;1760;52.480;13.422;2023-04-24T04:19:51;5.50;;;4.90;;
3491;SDS011;1760;52.480;13.422;2023-04-24T04:22:18;5.90;;;4.77;;
3491;SDS011;1760;52.480;13.422;2023-04-24T04:24:55;5.53;;;4.13;;
3491;SDS011;1760;52.480;13.422;2023-04-24T04:27:22;6.37;;;4.60;;
3491;SDS011;1760;52.480;13.422;2023-04-24T04:29:50;5.93;;;4.87;;
3491;SDS011;1760;52.480;13.422;2023-04-24T04:32:17;6.27;;;4.90;;
3491;SDS011;1760;52.480;13.422;2023-04-24T04:34:44;4.77;;;4.27;;
3491;SDS011;1760;52.480;13.422;2023-04-24T04:37:11;5.87;;;5.37;;
3491;SDS011;1760;52.480;13.422;2023-04-24T04:39:39;9.53;;;5.00;;
3491;SDS011;1760;52.480;13.422;2023-04-24T04:42:06;6.30;;;4.10;;
3491;SDS011;1760;52.480;13.422;2023-04-24T04:44:33;6.63;;;3.77;;
3491;SDS011;1760;52.480;13.422;2023-04-24T04:47:05;6.57;;;4.60;;
3491;SDS011;1760;52.480;13.422;2023-04-24T04:49:32;6.73;;;4.33;;
3491;SDS011;1760;52.480;13.422;2023-04-24T04:51:59;9.10;;;5.20;;
3491;SDS011;1760;52.480;13.422;2023-04-24T04:54:26;6.40;;;5.50;;
3491;SDS011;1760;52.480;13.422;2023-04-24T04:56:53;4.73;;;4.00;;
3491;SDS011;1760;52.480;13.422;2023-04-24T04:59:20;6.73;;;4.50;;
3491;SDS011;1760;52.480;13.422;2023-04-24T05:01:47;5.60;;;4.50;;
3491;SDS011;1760;52.480;13.422;2023-04-24T05:04:16;5.50;;;4.00;;
3491;SDS011;1760;52.480;13.422;2023-04-24T05:06:42;4.60;;;3.73;;
3491;SDS011;1760;52.480;13.422;2023-04-24T05:09:09;5.80;;;4.20;;
3491;SDS011;1760;52.480;13.422;2023-04-24T05:11:36;6.93;;;4.47;;
3491;SDS011;1760;52.480;13.422;2023-04-24T05:14:03;4.40;;;3.80;;
3491;SDS011;1760;52.480;13.422;2023-04-24T05:16:30;9.73;;;4.10;;
3491;SDS011;1760;52.480;13.422;2023-04-24T05:18:57;5.83;;;4.40;;
3491;SDS011;1760;52.480;13.422;2023-04-24T05:21:25;5.13;;;3.83;;
3491;SDS011;1760;52.480;13.422;2023-04-24T05:23:52;4.03;;;3.03;;
3491;SDS011;1760;52.480;13.422;2023-04-24T05:26:19;4.03;;;3.53;;
3491;SDS011;1760;52.480;13.422;2023-04-24T05:28:45;8.70;;;4.03;;
3491;SDS011;1760;52.480;13.422;2023-04-24T05:31:13;4.60;;;3.20;;
3491;SDS011;1760;52.480;13.422;2023-04-24T05:33:40;4.60;;;3.60;;
3491;SDS011;1760;52.480;13.422;2023-04-24T05:36:06;4.87;;;3.60;;
3491;SDS011;1760;52.480;13.422;2023-04-24T05:38:35;6.10;;;3.10;;
3491;SDS011;1760;52.480;13.422;2023-04-24T05:41:02;3.53;;;3.00;;
3491;SDS011;1760;52.480;13.422;2023-04-24T05:43:29;3.90;;;3.33;;
3491;SDS011;1760;52.480;13.422;2023-04-24T05:45:56;3.33;;;2.60;;
3491;SDS011;1760;52.480;13.422;2023-04-24T05:48:24;4.73;;;2.83;;
3491;SDS011;1760;52.480;13.422;2023-04-24T05:50:54;4.93;;;2.83;;
3491;SDS011;1760;52.480;13.422;2023-04-24T05:53:21;3.33;;;3.00;;
3491;SDS011;1760;52.480;13.422;2023-04-24T05:55:49;3.93;;;2.90;;
3491;SDS011;1760;52.480;13.422;2023-04-24T05:58:16;4.67;;;2.73;;
3491;SDS011;1760;52.480;13.422;2023-04-24T06:00:42;2.87;;;2.23;;
3491;SDS011;1760;52.480;13.422;2023-04-24T06:03:11;3.03;;;2.73;;
3491;SDS011;1760;52.480;13.422;2023-04-24T06:05:38;4.47;;;2.67;;
3491;SDS011;1760;52.480;13.422;2023-04-24T06:08:05;3.57;;;2.63;;
3491;SDS011;1760;52.480;13.422;2023-04-24T06:10:32;7.80;;;2.20;;
3491;SDS011;1760;52.480;13.422;2023-04-24T06:13:00;4.17;;;2.30;;
3491;SDS011;1760;52.480;13.422;2023-04-24T06:15:28;2.23;;;1.83;;
3491;SDS011;1760;52.480;13.422;2023-04-24T06:17:56;3.87;;;2.40;;
3491;SDS011;1760;52.480;13.422;2023-04-24T06:20:23;3.10;;;1.70;;
3491;SDS011;1760;52.480;13.422;2023-04-24T06:22:50;2.60;;;2.13;;
3491;SDS011;1760;52.480;13.422;2023-04-24T06:25:16;2.10;;;1.70;;
3491;SDS011;1760;52.480;13.422;2023-04-24T06:27:44;1.60;;;1.43;;
3491;SDS011;1760;52.480;13.422;2023-04-24T06:30:12;2.03;;;1.70;;
3491;SDS011;1760;52.480;13.422;2023-04-24T06:32:39;2.60;;;1.50;;
3491;SDS011;1760;52.480;13.422;2023-04-24T06:35:07;14.30;;;7.17;;
3491;SDS011;1760;52.480;13.422;2023-04-24T06:37:34;3.50;;;2.83;;
3491;SDS011;1760;52.480;13.422;2023-04-24T06:40:02;1.73;;;1.50;;
3491;SDS011;1760;52.480;13.422;2023-04-24T06:42:31;3.30;;;1.90;;
3491;SDS011;1760;52.480;13.422;2023-04-24T06:44:59;2.87;;;2.20;;
3491;SDS011;1760;52.480;13.422;2023-04-24T06:47:27;2.27;;;1.30;;
3491;SDS011;1760;52.480;13.422;2023-04-24T06:49:54;4.77;;;1.70;;
3491;SDS011;1760;52.480;13.422;2023-04-24T06:52:21;1.97;;;1.53;;
3491;SDS011;1760;52.480;13.422;2023-04-24T06:54:47;2.60;;;1.73;;
3491;SDS011;1760;52.480;13.422;2023-04-24T06:57:15;3.17;;;1.83;;
3491;SDS011;1760;52.480;13.422;2023-04-24T06:59:42;3.20;;;1.70;;
3491;SDS011;1760;52.480;13.422;2023-04-24T07:02:09;2.13;;;1.70;;
3491;SDS011;1760;52.480;13.422;2023-04-24T07:04:37;2.00;;;1.80;;
3491;SDS011;1760;52.480;13.422;2023-04-24T07:07:04;5.70;;;1.27;;
3491;SDS011;1760;52.480;13.422;2023-04-24T07:09:31;2.00;;;1.37;;
3491;SDS011;1760;52.480;13.422;2023-04-24T07:12:00;3.33;;;2.00;;
3491;SDS011;1760;52.480;13.422;2023-04-24T07:14:27;3.53;;;1.70;;
3491;SDS011;1760;52.480;13.422;2023-04-24T07:16:54;1.30;;;1.20;;
3491;SDS011;1760;52.480;13.422;2023-04-24T07:19:22;4.90;;;1.63;;
3491;SDS011;1760;52.480;13.422;2023-04-24T07:21:50;7.47;;;1.63;;
3491;SDS011;1760;52.480;13.422;2023-04-24T07:24:17;3.20;;;1.00;;
3491;SDS011;1760;52.480;13.422;2023-04-24T07:26:44;2.43;;;1.47;;
3491;SDS011;1760;52.480;13.422;2023-04-24T07:29:12;1.43;;;1.13;;
3491;SDS011;1760;52.480;13.422;2023-04-24T07:31:39;1.33;;;1.10;;
3491;SDS011;1760;52.480;13.422;2023-04-24T07:34:06;1.87;;;1.20;;
3491;SDS011;1760;52.480;13.422;2023-04-24T07:36:33;1.57;;;1.00;;
3491;SDS011;1760;52.480;13.422;2023-04-24T07:39:01;1.63;;;1.07;;
3491;SDS011;1760;52.480;13.422;2023-04-24T07:41:28;3.40;;;1.00;;
3491;SDS011;1760;52.480;13.422;2023-04-24T07:43:55;1.27;;;1.10;;
3491;SDS011;1760;52.480;13.422;2023-04-24T07:46:22;3.20;;;1.07;;
3491;SDS011;1760;52.480;13.422;2023-04-24T07:48:50;1.10;;;0.90;;
3491;SDS011;1760;52.480;13.422;2023-04-24T07:51:17;2.30;;;0.90;;
3491;SDS011;1760;52.480;13.422;2023-04-24T07:53:43;1.30;;;1.10;;
3491;SDS011;1760;52.480;13.422;2023-04-24T07:56:12;1.43;;;0.80;;
3491;SDS011;1760;52.480;13.422;2023-04-24T07:58:39;1.97;;;1.03;;
3491;SDS011;1760;52.480;13.422;2023-04-24T08:01:06;2.30;;;1.20;;
3491;SDS011;1760;52.480;13.422;2023-04-24T08:03:33;1.20;;;1.10;;
3491;SDS011;1760;52.480;13.422;2023-04-24T08:06:00;3.63;;;1.30;;
3491;SDS011;1760;52.480;13.422;2023-04-24T08:08:27;2.37;;;1.20;;
3491;SDS011;1760;52.480;13.422;2023-04-24T08:10:54;2.57;;;1.80;;
3491;SDS011;1760;52.480;13.422;2023-04-24T08:13:22;1.40;;;1.30;;
3491;SDS011;1760;52.480;13.422;2023-04-24T08:15:49;3.90;;;1.33;;
3491;SDS011;1760;52.480;13.422;2023-04-24T08:18:16;1.60;;;1.40;;
3491;SDS011;1760;52.480;13.422;2023-04-24T08:20:43;2.93;;;2.20;;
3491;SDS011;1760;52.480;13.422;2023-04-24T08:23:10;1.83;;;1.30;;
3491;SDS011;1760;52.480;13.422;2023-04-24T08:25:37;3.63;;;2.20;;
3491;SDS011;1760;52.480;13.422;2023-04-24T08:28:05;2.07;;;1.43;;
3491;SDS011;1760;52.480;13.422;2023-04-24T08:30:34;2.13;;;1.60;;
3491;SDS011;1760;52.480;13.422;2023-04-24T08:33:01;3.20;;;1.50;;
3491;SDS011;1760;52.480;13.422;2023-04-24T08:35:29;1.40;;;1.13;;
3491;SDS011;1760;52.480;13.422;2023-04-24T08:37:56;5.83;;;1.20;;
3491;SDS011;1760;52.480;13.422;2023-04-24T08:40:26;1.80;;;1.30;;
3491;SDS011;1760;52.480;13.422;2023-04-24T08:42:55;1.40;;;1.23;;
3491;SDS011;1760;52.480;13.422;2023-04-24T08:45:22;1.90;;;1.27;;
3491;SDS011;1760;52.480;13.422;2023-04-24T08:47:52;1.60;;;1.17;;
3491;SDS011;1760;52.480;13.422;2023-04-24T08:50:19;1.50;;;1.20;;
3491;SDS011;1760;52.480;13.422;2023-04-24T08:52:47;1.87;;;1.23;;
3491;SDS011;1760;52.480;13.422;2023-04-24T08:55:15;1.47;;;1.27;;
3491;SDS011;1760;52.480;13.422;2023-04-24T08:57:43;1.57;;;1.27;;
3491;SDS011;1760;52.480;13.422;2023-04-24T09:00:13;2.97;;;1.93;;
3491;SDS011;1760;52.480;13.422;2023-04-24T09:02:41;2.03;;;1.60;;
3491;SDS011;1760;52.480;13.422;2023-04-24T09:05:11;1.40;;;1.30;;
3491;SDS011;1760;52.480;13.422;2023-04-24T09:07:40;1.93;;;1.60;;
3491;SDS011;1760;52.480;13.422;2023-04-24T09:10:09;2.80;;;1.13;;
3491;SDS011;1760;52.480;13.422;2023-04-24T09:12:37;1.70;;;1.37;;
3491;SDS011;1760;52.480;13.422;2023-04-24T09:15:05;2.13;;;1.13;;
3491;SDS011;1760;52.480;13.422;2023-04-24T09:17:34;1.53;;;1.20;;
3491;SDS011;1760;52.480;13.422;2023-04-24T09:20:01;4.10;;;1.37;;
3491;SDS011;1760;52.480;13.422;2023-04-24T09:22:30;1.90;;;1.07;;
3491;SDS011;1760;52.480;13.422;2023-04-24T09:25:04;2.10;;;1.40;;
3491;SDS011;1760;52.480;13.422;2023-04-24T09:27:32;2.27;;;1.40;;
3491;SDS011;1760;52.480;13.422;2023-04-24T09:29:59;1.87;;;1.20;;
3491;SDS011;1760;52.480;13.422;2023-04-24T09:32:27;5.27;;;1.37;;
3491;SDS011;1760;52.480;13.422;2023-04-24T09:35:08;3.23;;;2.07;;
3491;SDS011;1760;52.480;13.422;2023-04-24T09:37:41;4.70;;;2.10;;
3491;SDS011;1760;52.480;13.422;2023-04-24T09:40:14;2.90;;;1.27;;
3491;SDS011;1760;52.480;13.422;2023-04-24T09:42:45;2.60;;;1.60;;
3491;SDS011;1760;52.480;13.422;2023-04-24T09:45:13;3.90;;;1.27;;
3491;SDS011;1760;52.480;13.422;2023-04-24T09:47:40;1.30;;;1.20;;
3491;SDS011;1760;52.480;13.422;2023-04-24T09:50:13;4.83;;;3.07;;
3491;SDS011;1760;52.480;13.422;2023-04-24T09:52:43;8.50;;;3.63;;
3491;SDS011;1760;52.480;13.422;2023-04-24T09:55:12;5.17;;;3.23;;
3491;SDS011;1760;52.480;13.422;2023-04-24T09:57:53;1.43;;;1.20;;
3491;SDS011;1760;52.480;13.422;2023-04-24T10:00:24;2.17;;;1.77;;
3491;SDS011;1760;52.480;13.422;2023-04-24T10:02:55;2.27;;;1.43;;
3491;SDS011;1760;52.480;13.422;2023-04-24T10:05:24;2.37;;;1.27;;
3491;SDS011;1760;52.480;13.422;2023-04-24T10:07:57;2.57;;;1.33;;
3491;SDS011;1760;52.480;13.422;2023-04-24T10:10:26;2.47;;;1.20;;
3491;SDS011;1760;52.480;13.422;2023-04-24T10:12:53;1.73;;;1.37;;
3491;SDS011;1760;52.480;13.422;2023-04-24T10:15:21;1.43;;;1.20;;
3491;SDS011;1760;52.480;13.422;2023-04-24T10:17:48;2.03;;;1.30;;
3491;SDS011;1760;52.480;13.422;2023-04-24T10:20:18;1.33;;;1.00;;
3491;SDS011;1760;52.480;13.422;2023-04-24T10:22:47;1.37;;;1.10;;
3491;SDS011;1760;52.480;13.422;2023-04-24T10:25:20;1.10;;;0.93;;
3491;SDS011;1760;52.480;13.422;2023-04-24T10:27:48;1.10;;;0.80;;
3491;SDS011;1760;52.480;13.422;2023-04-24T10:30:17;2.40;;;1.33;;
3491;SDS011;1760;52.480;13.422;2023-04-24T10:32:45;1.07;;;0.90;;
3491;SDS011;1760;52.480;13.422;2023-04-24T10:35:12;1.70;;;1.37;;
3491;SDS011;1760;52.480;13.422;2023-04-24T10:37:42;1.93;;;1.30;;
3491;SDS011;1760;52.480;13.422;2023-04-24T10:40:12;1.73;;;1.20;;
3491;SDS011;1760;52.480;13.422;2023-04-24T10:42:45;2.17;;;1.10;;
3491;SDS011;1760;52.480;13.422;2023-04-24T10:45:17;1.90;;;1.23;;
3491;SDS011;1760;52.480;13.422;2023-04-24T10:47:53;4.50;;;1.43;;
3491;SDS011;1760;52.480;13.422;2023-04-24T10:50:23;1.20;;;1.00;;
3491;SDS011;1760;52.480;13.422;2023-04-24T10:52:55;2.90;;;1.80;;
3491;SDS011;1760;52.480;13.422;2023-04-24T10:55:46;1.63;;;1.00;;
3491;SDS011;1760;52.480;13.422;2023-04-24T10:58:15;2.73;;;1.53;;
3491;SDS011;1760;52.480;13.422;2023-04-24T11:00:55;1.50;;;1.40;;
3491;SDS011;1760;52.480;13.422;2023-04-24T11:03:24;3.00;;;1.60;;
3491;SDS011;1760;52.480;13.422;2023-04-24T11:05:54;2.07;;;1.50;;
3491;SDS011;1760;52.480;13.422;2023-04-24T11:08:23;4.03;;;1.47;;
3491;SDS011;1760;52.480;13.422;2023-04-24T11:10:55;1.20;;;1.00;;
3491;SDS011;1760;52.480;13.422;2023-04-24T11:13:25;1.50;;;1.10;;
3491;SDS011;1760;52.480;13.422;2023-04-24T11:16:13;1.70;;;1.10;;
3491;SDS011;1760;52.480;13.422;2023-04-24T11:18:51;1.57;;;1.47;;
3491;SDS011;1760;52.480;13.422;2023-04-24T11:21:19;1.73;;;1.27;;
3491;SDS011;1760;52.480;13.422;2023-04-24T11:23:48;2.00;;;1.70;;
3491;SDS011;1760;52.480;13.422;2023-04-24T11:26:17;2.10;;;1.43;;
3491;SDS011;1760;52.480;13.422;2023-04-24T11:28:50;2.10;;;1.37;;
3491;SDS011;1760;52.480;13.422;2023-04-24T11:31:37;1.33;;;1.23;;
3491;SDS011;1760;52.480;13.422;2023-04-24T11:34:08;1.97;;;1.40;;
3491;SDS011;1760;52.480;13.422;2023-04-24T11:36:36;5.57;;;1.60;;
3491;SDS011;1760;52.480;13.422;2023-04-24T11:39:03;3.40;;;2.00;;
3491;SDS011;1760;52.480;13.422;2023-04-24T11:41:30;1.20;;;1.10;;
3491;SDS011;1760;52.480;13.422;2023-04-24T11:43:58;5.87;;;1.50;;
3491;SDS011;1760;52.480;13.422;2023-04-24T11:46:27;1.63;;;1.53;;
3491;SDS011;1760;52.480;13.422;2023-04-24T11:48:56;2.20;;;1.63;;
3491;SDS011;1760;52.480;13.422;2023-04-24T11:51:24;4.30;;;2.33;;
3491;SDS011;1760;52.480;13.422;2023-04-24T11:53:51;2.23;;;2.03;;
3491;SDS011;1760;52.480;13.422;2023-04-24T11:56:19;1.90;;;1.63;;
3491;SDS011;1760;52.480;13.422;2023-04-24T11:58:47;1.23;;;1.13;;
3491;SDS011;1760;52.480;13.422;2023-04-24T12:01:15;3.17;;;1.60;;
3491;SDS011;1760;52.480;13.422;2023-04-24T12:03:46;1.70;;;1.60;;
3491;SDS011;1760;52.480;13.422;2023-04-24T12:06:15;2.40;;;1.40;;
3491;SDS011;1760;52.480;13.422;2023-04-24T12:08:41;1.63;;;1.40;;
3491;SDS011;1760;52.480;13.422;2023-04-24T12:11:14;1.80;;;1.47;;
3491;SDS011;1760;52.480;13.422;2023-04-24T12:13:42;1.53;;;1.40;;
3491;SDS011;1760;52.480;13.422;2023-04-24T12:16:10;9.53;;;1.40;;
3491;SDS011;1760;52.480;13.422;2023-04-24T12:18:42;2.23;;;1.70;;
3491;SDS011;1760;52.480;13.422;2023-04-24T12:21:17;1.70;;;1.60;;
3491;SDS011;1760;52.480;13.422;2023-04-24T12:23:44;1.53;;;1.40;;
3491;SDS011;1760;52.480;13.422;2023-04-24T12:26:12;1.20;;;1.10;;
3491;SDS011;1760;52.480;13.422;2023-04-24T12:28:42;2.17;;;1.50;;
3491;SDS011;1760;52.480;13.422;2023-04-24T12:31:09;1.43;;;1.10;;
3491;SDS011;1760;52.480;13.422;2023-04-24T12:33:36;1.33;;;1.13;;
3491;SDS011;1760;52.480;13.422;2023-04-24T12:36:05;1.97;;;1.53;;
3491;SDS011;1760;52.480;13.422;2023-04-24T12:38:32;1.40;;;1.30;;
3491;SDS011;1760;52.480;13.422;2023-04-24T12:41:06;1.33;;;1.20;;
3491;SDS011;1760;52.480;13.422;2023-04-24T12:43:34;7.13;;;1.30;;
3491;SDS011;1760;52.480;13.422;2023-04-24T12:46:01;2.27;;;1.40;;
3491;SDS011;1760;52.480;13.422;2023-04-24T12:48:29;1.57;;;1.10;;
3491;SDS011;1760;52.480;13.422;2023-04-24T12:50:56;2.43;;;1.17;;
3491;SDS011;1760;52.480;13.422;2023-04-24T12:53:27;5.17;;;1.20;;
3491;SDS011;1760;52.480;13.422;2023-04-24T12:55:56;1.57;;;1.47;;
3491;SDS011;1760;52.480;13.422;2023-04-24T12:58:23;1.80;;;1.27;;
3491;SDS011;1760;52.480;13.422;2023-04-24T13:00:50;1.30;;;1.00;;
3491;SDS011;1760;52.480;13.422;2023-04-24T13:03:17;2.07;;;1.00;;
3491;SDS011;1760;52.480;13.422;2023-04-24T13:05:44;1.73;;;1.10;;
3491;SDS011;1760;52.480;13.422;2023-04-24T13:08:11;2.40;;;1.63;;
3491;SDS011;1760;52.480;13.422;2023-04-24T13:10:40;1.47;;;1.13;;
3491;SDS011;1760;52.480;13.422;2023-04-24T13:13:07;1.50;;;1.00;;
3491;SDS011;1760;52.480;13.422;2023-04-24T13:15:34;2.60;;;1.17;;
3491;SDS011;1760;52.480;13.422;2023-04-24T13:18:01;1.30;;;1.20;;
3491;SDS011;1760;52.480;13.422;2023-04-24T13:20:28;2.90;;;1.40;;
3491;SDS011;1760;52.480;13.422;2023-04-24T13:22:55;1.40;;;1.20;;
3491;SDS011;1760;52.480;13.422;2023-04-24T13:25:22;1.83;;;0.93;;
3491;SDS011;1760;52.480;13.422;2023-04-24T13:27:51;1.30;;;1.20;;
3491;SDS011;1760;52.480;13.422;2023-04-24T13:30:18;1.57;;;1.17;;
3491;SDS011;1760;52.480;13.422;2023-04-24T13:32:45;1.33;;;1.10;;
3491;SDS011;1760;52.480;13.422;2023-04-24T13:35:12;1.53;;;1.10;;
3491;SDS011;1760;52.480;13.422;2023-04-24T13:37:40;3.17;;;1.07;;
3491;SDS011;1760;52.480;13.422;2023-04-24T13:40:07;1.50;;;0.93;;
3491;SDS011;1760;52.480;13.422;2023-04-24T13:42:35;1.87;;;1.20;;
3491;SDS011;1760;52.480;13.422;2023-04-24T13:45:03;1.13;;;1.00;;
3491;SDS011;1760;52.480;13.422;2023-04-24T13:47:31;1.17;;;1.03;;
3491;SDS011;1760;52.480;13.422;2023-04-24T13:49:58;1.30;;;1.03;;
3491;SDS011;1760;52.480;13.422;2023-04-24T13:52:25;1.20;;;0.90;;
3491;SDS011;1760;52.480;13.422;2023-04-24T13:54:52;2.03;;;1.40;;
3491;SDS011;1760;52.480;13.422;2023-04-24T13:57:18;3.77;;;2.07;;
3491;SDS011;1760;52.480;13.422;2023-04-24T13:59:46;1.50;;;1.30;;
3491;SDS011;1760;52.480;13.422;2023-04-24T14:02:14;2.27;;;1.10;;
3491;SDS011;1760;52.480;13.422;2023-04-24T14:04:41;3.60;;;1.40;;
3491;SDS011;1760;52.480;13.422;2023-04-24T14:07:08;1.93;;;1.57;;
3491;SDS011;1760;52.480;13.422;2023-04-24T14:09:35;1.40;;;1.20;;
3491;SDS011;1760;52.480;13.422;2023-04-24T14:12:02;2.10;;;1.37;;
3491;SDS011;1760;52.480;13.422;2023-04-24T14:14:29;3.70;;;1.37;;
3491;SDS011;1760;52.480;13.422;2023-04-24T14:16:56;2.00;;;1.00;;
3491;SDS011;1760;52.480;13.422;2023-04-24T14:19:25;1.10;;;0.90;;
3491;SDS011;1760;52.480;13.422;2023-04-24T14:21:52;1.60;;;1.30;;
3491;SDS011;1760;52.480;13.422;2023-04-24T14:24:20;4.67;;;3.17;;
3491;SDS011;1760;52.480;13.422;2023-04-24T14:26:47;3.10;;;1.80;;
3491;SDS011;1760;52.480;13.422;2023-04-24T14:29:14;4.33;;;2.53;;
3491;SDS011;1760;52.480;13.422;2023-04-24T14:31:42;1.63;;;1.43;;
3491;SDS011;1760;52.480;13.422;2023-04-24T14:34:09;3.30;;;0.90;;
3491;SDS011;1760;52.480;13.422;2023-04-24T14:36:37;1.60;;;1.10;;
3491;SDS011;1760;52.480;13.422;2023-04-24T14:39:04;1.30;;;1.00;;
3491;SDS011;1760;52.480;13.422;2023-04-24T14:41:32;2.67;;;1.57;;
3491;SDS011;1760;52.480;13.422;2023-04-24T14:44:00;2.43;;;1.20;;
3491;SDS011;1760;52.480;13.422;2023-04-24T14:46:28;1.10;;;1.00;;
3491;SDS011;1760;52.480;13.422;2023-04-24T14:48:56;1.30;;;1.20;;
3491;SDS011;1760;52.480;13.422;2023-04-24T14:51:23;1.30;;;1.00;;
3491;SDS011;1760;52.480;13.422;2023-04-24T14:53:53;3.27;;;1.33;;
3491;SDS011;1760;52.480;13.422;2023-04-24T14:56:20;2.53;;;1.47;;
3491;SDS011;1760;52.480;13.422;2023-04-24T14:58:47;1.47;;;1.00;;
3491;SDS011;1760;52.480;13.422;2023-04-24T15:01:14;1.60;;;1.20;;
3491;SDS011;1760;52.480;13.422;2023-04-24T15:03:40;1.93;;;1.20;;
3491;SDS011;1760;52.480;13.422;2023-04-24T15:06:07;1.40;;;1.30;;